createdAt,value
2023-03-16T00:02:57.851Z,3.8
2023-03-16T00:07:57.777Z,3.7
2023-03-16T00:12:57.768Z,3.7
2023-03-16T00:17:57.851Z,3.7
2023-03-16T00:22:57.774Z,3.6
2023-03-16T00:27:57.769Z,3.6
2023-03-16T00:32:57.802Z,3.6
2023-03-16T00:37:57.953Z,3.6
2023-03-16T00:42:57.754Z,3.6
2023-03-16T00:47:57.778Z,3.6
2023-03-16T00:52:57.759Z,3.5
2023-03-16T00:57:57.767Z,3.5
2023-03-16T01:02:57.812Z,3.5
2023-03-16T01:07:57.740Z,3.4
2023-03-16T01:12:57.838Z,3.4
2023-03-16T01:17:57.771Z,3.4
2023-03-16T01:22:57.748Z,3.4
2023-03-16T01:27:57.744Z,3.4
2023-03-16T01:32:57.886Z,3.4
2023-03-16T01:37:58.138Z,3.3
2023-03-16T01:42:57.918Z,3.3
2023-03-16T01:47:57.943Z,3.3
2023-03-16T01:52:57.952Z,3.3
2023-03-16T01:57:57.959Z,3.3
2023-03-16T02:02:58.081Z,3.3
2023-03-16T02:07:58.000Z,3.2
2023-03-16T02:12:58.214Z,3.2
2023-03-16T02:17:58.052Z,3.2
2023-03-16T02:22:58.048Z,3.1
2023-03-16T02:27:58.024Z,3.1
2023-03-16T02:32:58.163Z,3.1
2023-03-16T02:37:58.265Z,3.1
2023-03-16T02:42:58.052Z,3.1
2023-03-16T02:47:58.076Z,3
2023-03-16T02:52:58.129Z,3
2023-03-16T02:57:58.147Z,3
2023-03-16T03:02:58.223Z,2.9
2023-03-16T03:07:58.141Z,2.9
2023-03-16T03:12:58.186Z,2.9
2023-03-16T03:17:58.159Z,2.9
2023-03-16T03:22:58.301Z,2.9
2023-03-16T03:27:58.193Z,2.9
2023-03-16T03:32:58.252Z,2.8
2023-03-16T03:37:58.415Z,2.8
2023-03-16T03:42:58.180Z,2.8
2023-03-16T03:47:58.170Z,2.8
2023-03-16T03:52:58.228Z,2.8
2023-03-16T03:57:58.174Z,2.8
2023-03-16T04:02:58.282Z,2.8
2023-03-16T04:07:58.179Z,2.7
2023-03-16T04:12:58.246Z,2.7
2023-03-16T04:17:58.192Z,2.7
2023-03-16T04:22:58.208Z,2.7
2023-03-16T04:27:58.161Z,2.6
2023-03-16T04:32:58.257Z,2.6
2023-03-16T04:37:58.190Z,2.6
2023-03-16T04:42:58.160Z,2.6
2023-03-16T04:47:58.168Z,2.6
2023-03-16T04:52:58.183Z,2.6
2023-03-16T04:57:58.190Z,2.6
2023-03-16T05:02:58.159Z,2.5
2023-03-16T05:07:58.151Z,2.5
2023-03-16T05:12:58.350Z,2.5
2023-03-16T05:17:58.207Z,2.5
2023-03-16T05:22:58.167Z,2.5
2023-03-16T05:27:58.178Z,2.5
2023-03-16T05:32:58.271Z,2.4
2023-03-16T05:37:58.207Z,2.4
2023-03-16T05:42:58.163Z,2.4
2023-03-16T05:47:58.186Z,2.4
2023-03-16T05:52:58.176Z,2.4
2023-03-16T05:57:58.180Z,2.4
2023-03-16T06:02:58.195Z,2.4
2023-03-16T06:07:58.189Z,2.4
2023-03-16T06:12:59.884Z,2.4
2023-03-16T06:17:58.246Z,2.4
2023-03-16T06:22:58.219Z,2.4
2023-03-16T06:27:58.216Z,2.4
2023-03-16T06:32:58.257Z,2.5
2023-03-16T06:37:58.230Z,2.5
2023-03-16T06:42:58.240Z,2.5
2023-03-16T06:47:58.211Z,2.6
2023-03-16T06:52:58.203Z,2.6
2023-03-16T06:57:58.233Z,2.6
2023-03-16T07:03:00.373Z,2.6
2023-03-16T07:07:58.309Z,2.7
2023-03-16T07:12:58.544Z,2.7
2023-03-16T07:17:58.473Z,2.8
2023-03-16T07:22:58.444Z,2.8
2023-03-16T07:27:58.353Z,2.8
2023-03-16T07:32:58.396Z,2.9
2023-03-16T07:37:58.375Z,2.9
2023-03-16T07:42:58.530Z,3
2023-03-16T07:47:58.355Z,3.1
2023-03-16T07:52:58.367Z,3.1
2023-03-16T07:57:58.403Z,3.2
2023-03-16T08:02:58.348Z,3.3
2023-03-16T08:07:58.352Z,3.3
2023-03-16T08:12:58.508Z,3.4
2023-03-16T08:17:58.372Z,3.5
2023-03-16T08:22:58.347Z,3.6
2023-03-16T08:27:58.341Z,3.6
2023-03-16T08:32:58.389Z,3.8
2023-03-16T08:37:58.365Z,3.8
2023-03-16T08:42:58.343Z,3.9
2023-03-16T08:47:58.353Z,4
2023-03-16T08:52:58.338Z,4.1
2023-03-16T08:57:58.384Z,4.2
2023-03-16T09:02:58.428Z,4.3
2023-03-16T09:07:58.334Z,4.4
2023-03-16T09:12:58.532Z,4.5
2023-03-16T09:17:58.368Z,4.6
2023-03-16T09:22:58.341Z,4.7
2023-03-16T09:27:58.352Z,4.8
2023-03-16T09:32:58.377Z,4.9
2023-03-16T09:38:06.407Z,5.1
2023-03-16T09:42:58.340Z,5.1
2023-03-16T09:47:58.353Z,5.3
2023-03-16T09:52:58.377Z,5.4
2023-03-16T09:57:58.384Z,5.5
2023-03-16T10:02:58.353Z,5.7
2023-03-16T10:07:58.349Z,5.8
2023-03-16T10:12:59.164Z,5.9
2023-03-16T10:17:58.457Z,6.1
2023-03-16T10:22:58.362Z,6.2
2023-03-16T10:27:58.372Z,6.3
2023-03-16T10:32:58.438Z,6.4
2023-03-16T10:37:58.409Z,6.6
2023-03-16T10:42:58.426Z,6.7
2023-03-16T10:47:58.367Z,6.9
2023-03-16T10:52:59.372Z,7
2023-03-16T10:57:58.423Z,7.1
2023-03-16T11:02:58.365Z,7.3
2023-03-16T11:07:58.381Z,7.4
2023-03-16T11:13:01.400Z,7.6
2023-03-16T11:17:58.405Z,7.8
2023-03-16T11:22:58.385Z,7.9
2023-03-16T11:27:58.381Z,8.1
2023-03-16T11:32:58.471Z,8.2
2023-03-16T11:37:58.411Z,8.4
2023-03-16T11:42:58.363Z,8.5
2023-03-16T11:47:58.376Z,8.6
2023-03-16T11:52:58.365Z,8.8
2023-03-16T11:57:58.376Z,8.9
2023-03-16T12:02:58.409Z,9.1
2023-03-16T12:07:58.353Z,9.3
2023-03-16T12:12:58.438Z,9.4
2023-03-16T12:17:58.389Z,9.5
2023-03-16T12:22:58.352Z,9.7
2023-03-16T12:27:58.342Z,9.8
2023-03-16T12:32:58.424Z,10
2023-03-16T12:37:58.380Z,10.1
2023-03-16T12:42:58.342Z,10.3
2023-03-16T12:47:58.347Z,10.4
2023-03-16T12:52:58.344Z,10.6
2023-03-16T12:57:58.359Z,10.7
2023-03-16T13:02:58.337Z,10.8
2023-03-16T13:07:58.342Z,10.9
2023-03-16T13:12:58.470Z,11.1
2023-03-16T13:17:58.379Z,11.2
2023-03-16T13:22:58.352Z,11.3
2023-03-16T13:27:58.405Z,11.4
2023-03-16T13:32:58.385Z,11.6
2023-03-16T13:37:58.369Z,11.7
2023-03-16T13:42:58.343Z,11.8
2023-03-16T13:47:58.352Z,11.9
2023-03-16T13:52:58.353Z,12.1
2023-03-16T13:57:58.372Z,12.2
2023-03-16T14:02:58.470Z,12.3
2023-03-16T14:07:58.351Z,12.4
2023-03-16T14:12:58.474Z,12.6
2023-03-16T14:17:58.377Z,12.7
2023-03-16T14:22:59.951Z,12.9
2023-03-16T14:27:58.368Z,13
2023-03-16T14:32:58.567Z,13.1
2023-03-16T14:37:58.377Z,13.3
2023-03-16T14:42:58.348Z,13.4
2023-03-16T14:47:58.354Z,13.5
2023-03-16T14:52:58.349Z,13.6
2023-03-16T14:57:58.365Z,13.8
2023-03-16T15:02:58.408Z,13.9
2023-03-16T15:07:58.340Z,14
2023-03-16T15:12:58.443Z,14.1
2023-03-16T15:17:58.391Z,14.3
2023-03-16T15:22:58.346Z,14.4
2023-03-16T15:27:58.355Z,14.5
2023-03-16T15:32:58.475Z,14.6
2023-03-16T15:37:58.370Z,14.7
2023-03-16T15:42:58.344Z,14.8
2023-03-16T15:47:58.345Z,14.9
2023-03-16T15:52:58.354Z,15
2023-03-16T15:57:58.368Z,15.1
2023-03-16T16:02:58.342Z,15.1
2023-03-16T16:07:58.333Z,15.1
2023-03-16T16:12:58.458Z,15.1
2023-03-16T16:18:19.594Z,15
2023-03-16T16:22:58.336Z,14.9
2023-03-16T16:27:58.347Z,14.9
2023-03-16T16:32:58.957Z,14.8
2023-03-16T16:37:58.366Z,14.6
2023-03-16T16:42:58.339Z,14.6
2023-03-16T16:47:58.341Z,14.4
2023-03-16T16:52:58.338Z,14.3
2023-03-16T16:57:58.391Z,14.1
2023-03-16T17:02:58.332Z,14
2023-03-16T17:07:58.338Z,13.9
2023-03-16T17:12:58.432Z,13.8
2023-03-16T17:17:58.370Z,13.6
2023-03-16T17:22:58.348Z,13.4
2023-03-16T17:27:58.340Z,13.3
2023-03-16T17:32:58.399Z,13.1
2023-03-16T17:37:58.360Z,13
2023-03-16T17:42:58.334Z,12.9
2023-03-16T17:47:58.337Z,12.8
2023-03-16T17:52:58.334Z,12.6
2023-03-16T17:57:58.367Z,12.4
2023-03-16T18:02:58.331Z,12.3
2023-03-16T18:07:58.328Z,12.2
2023-03-16T18:12:58.454Z,12.1
2023-03-16T18:17:58.385Z,11.9
2023-03-16T18:22:58.334Z,11.8
2023-03-16T18:27:58.324Z,11.7
2023-03-16T18:32:58.432Z,11.6
2023-03-16T18:37:58.358Z,11.4
2023-03-16T18:42:58.334Z,11.4
2023-03-16T18:47:58.325Z,11.3
2023-03-16T18:52:58.348Z,11.1
2023-03-16T18:57:58.371Z,11
2023-03-16T19:02:58.327Z,10.9
2023-03-16T19:07:58.327Z,10.8
2023-03-16T19:12:58.408Z,10.7
2023-03-16T19:17:58.396Z,10.6
2023-03-16T19:22:58.317Z,10.5
2023-03-16T19:27:58.307Z,10.4
2023-03-16T19:32:58.371Z,10.3
2023-03-16T19:37:58.365Z,10.3
2023-03-16T19:42:58.315Z,10.2
2023-03-16T19:47:58.322Z,10.1
2023-03-16T19:52:58.322Z,10
2023-03-16T19:57:58.347Z,9.9
2023-03-16T20:02:58.315Z,9.8
2023-03-16T20:07:58.305Z,9.8
2023-03-16T20:12:58.402Z,9.7
2023-03-16T20:17:58.355Z,9.6
2023-03-16T20:22:58.314Z,9.6
2023-03-16T20:27:58.331Z,9.5
2023-03-16T20:32:58.384Z,9.4
2023-03-16T20:37:58.335Z,9.4
2023-03-16T20:42:58.300Z,9.3
2023-03-16T20:47:58.317Z,9.3
2023-03-16T20:52:58.299Z,9.3
2023-03-16T20:57:58.325Z,9.2
2023-03-16T21:02:58.299Z,9.1
2023-03-16T21:07:58.316Z,9.1
2023-03-16T21:12:58.369Z,9
2023-03-16T21:17:58.325Z,8.9
2023-03-16T21:22:58.295Z,8.9
2023-03-16T21:27:58.302Z,8.9
2023-03-16T21:32:58.327Z,8.8
2023-03-16T21:37:58.324Z,8.8
2023-03-16T21:42:58.296Z,8.8
2023-03-16T21:47:58.326Z,8.8
2023-03-16T21:52:58.295Z,8.7
2023-03-16T21:57:58.312Z,8.6
2023-03-16T22:02:58.438Z,8.6
2023-03-16T22:07:58.275Z,8.6
2023-03-16T22:12:58.357Z,8.5
2023-03-16T22:17:58.302Z,8.4
2023-03-16T22:22:58.280Z,8.4
2023-03-16T22:27:58.285Z,8.4
2023-03-16T22:32:58.454Z,8.3
2023-03-16T22:37:58.309Z,8.3
2023-03-16T22:42:58.278Z,8.3
2023-03-16T22:47:58.274Z,8.2
2023-03-16T22:52:58.280Z,8.2
2023-03-16T22:57:58.477Z,8.1
2023-03-16T23:02:58.271Z,8.1
2023-03-16T23:07:58.277Z,8.1
2023-03-16T23:12:58.337Z,8
2023-03-16T23:17:58.317Z,8
2023-03-16T23:22:58.288Z,7.9
2023-03-16T23:27:58.294Z,7.9
2023-03-16T23:32:58.370Z,7.9
2023-03-16T23:37:58.318Z,7.9
2023-03-16T23:42:58.274Z,7.8
2023-03-16T23:47:58.296Z,7.8
2023-03-16T23:52:58.353Z,7.8
2023-03-16T23:57:58.290Z,7.8
